Tafton, Arkansas
Current Conditions -  °F | °C
As of 2:53 PM on Tuesday 27 Jan 2015 (Local Time) from KLIT Reporting Station
Clear Clear  
Wind Chill: 67°   Ceiling: Unl
Heat Index: 67°   Visibility: 10mi
Dew Point: 29°   Wind: 0mph
Humidity: 24%   Direction: NA
Pressure: 30.12"   Gusts: NA
Location:  34.6196°N, 92.2211°W
Report Text: KLIT 272053Z 00000KT 10SM CLR 19/M02 A3012 RMK AO2 SLP201 T01941017 56013
Loading
Personal Weather Stations






























Interactive Weather Map New forecast layout! Learn more

10-Day Weather Forecast

Advertisements
Track Severe Weather on mobile